createdAt,value
2022-12-23T00:00:27.618Z,6.80
2022-12-23T00:02:54.417Z,6.80
2022-12-23T00:05:21.011Z,6.90
2022-12-23T00:07:47.618Z,6.90
2022-12-23T00:10:14.157Z,7.20
2022-12-23T00:12:59.165Z,7.40
2022-12-23T00:15:25.746Z,7.10
2022-12-23T00:17:52.261Z,7.10
2022-12-23T00:20:18.949Z,7.20
2022-12-23T00:23:04.003Z,7.10
2022-12-23T00:25:40.273Z,7.00
2022-12-23T00:28:17.707Z,7.20
2022-12-23T00:30:49.448Z,7.40
2022-12-23T00:33:17.890Z,7.40
2022-12-23T00:35:45.140Z,7.40
2022-12-23T00:38:12.242Z,7.50
2022-12-23T00:40:57.278Z,7.80
2022-12-23T00:43:23.760Z,7.50
2022-12-23T00:45:50.364Z,7.60
2022-12-23T00:48:35.397Z,7.70
2022-12-23T00:51:01.942Z,7.80
2022-12-23T00:53:28.539Z,7.90
2022-12-23T00:55:55.079Z,7.90
2022-12-23T00:58:21.768Z,8.10
2022-12-23T01:01:06.888Z,8.30
2022-12-23T01:03:52.052Z,8.50
2022-12-23T01:06:18.612Z,8.60
2022-12-23T01:08:45.164Z,8.90
2022-12-23T01:11:12.419Z,8.90
2022-12-23T01:13:39.425Z,8.70
2022-12-23T01:16:15.012Z,9.00
2022-12-23T01:18:43.595Z,8.90
2022-12-23T01:21:10.831Z,9.00
2022-12-23T01:23:37.523Z,8.70
2022-12-23T01:26:05.714Z,8.70
2022-12-23T01:28:32.828Z,8.60
2022-12-23T01:31:01.231Z,8.70
2022-12-23T01:33:27.906Z,8.80
2022-12-23T01:36:06.134Z,9.00
2022-12-23T01:38:33.795Z,9.20
2022-12-23T01:41:00.295Z,9.20
2022-12-23T01:43:50.762Z,9.10
2022-12-23T01:46:18.430Z,9.10
2022-12-23T01:48:48.574Z,9.20
2022-12-23T01:51:27.474Z,9.40
2022-12-23T01:54:01.008Z,9.50
2022-12-23T01:56:29.239Z,9.40
2022-12-23T01:58:59.469Z,9.40
2022-12-23T02:01:57.210Z,9.30
2022-12-23T02:04:24.796Z,9.40
2022-12-23T02:07:10.463Z,9.30
2022-12-23T02:09:40.563Z,9.20
2022-12-23T02:12:28.990Z,9.20
2022-12-23T02:15:36.332Z,9.30
2022-12-23T02:18:02.883Z,9.10
2022-12-23T02:20:57.325Z,9.20
2022-12-23T02:23:47.132Z,9.30
2022-12-23T02:26:25.388Z,9.30
2022-12-23T02:29:03.938Z,9.30
2022-12-23T02:31:42.910Z,9.30
2022-12-23T02:34:43.798Z,9.40
2022-12-23T02:37:25.450Z,9.40
2022-12-23T02:40:10.923Z,9.30
2022-12-23T02:42:46.208Z,9.30
2022-12-23T02:45:19.136Z,9.00
2022-12-23T02:47:58.930Z,9.10
2022-12-23T02:50:32.831Z,9.10
2022-12-23T02:53:04.101Z,9.10
2022-12-23T02:55:34.694Z,9.20
2022-12-23T02:58:05.395Z,9.20
2022-12-23T03:00:32.411Z,9.40
2022-12-23T03:02:59.270Z,9.20
2022-12-23T03:05:39.227Z,9.30
2022-12-23T03:08:08.194Z,9.20
2022-12-23T03:10:40.622Z,9.10
2022-12-23T03:13:13.301Z,8.90
2022-12-23T03:15:55.440Z,8.80
2022-12-23T03:18:45.213Z,8.70
2022-12-23T03:21:31.434Z,9.00
2022-12-23T03:24:09.827Z,9.00
2022-12-23T03:26:45.590Z,8.80
2022-12-23T03:29:16.475Z,8.90
2022-12-23T03:31:44.443Z,8.90
2022-12-23T03:34:15.497Z,8.90
2022-12-23T03:36:47.456Z,8.70
2022-12-23T03:39:17.569Z,8.80
2022-12-23T03:41:48.176Z,8.40
2022-12-23T03:44:20.969Z,8.10
2022-12-23T03:46:52.381Z,8.50
2022-12-23T03:49:26.064Z,8.40
2022-12-23T03:52:03.134Z,8.70
2022-12-23T03:54:33.761Z,8.80
2022-12-23T03:57:03.136Z,8.80
2022-12-23T03:59:32.176Z,8.60
2022-12-23T04:02:08.103Z,8.50
2022-12-23T04:05:00.822Z,8.60
2022-12-23T04:08:02.873Z,8.70
2022-12-23T04:10:29.332Z,9.00
2022-12-23T04:12:55.953Z,8.90
2022-12-23T04:15:24.302Z,9.10
2022-12-23T04:17:51.665Z,9.10
2022-12-23T04:20:18.632Z,9.10
2022-12-23T04:22:45.176Z,9.10
2022-12-23T04:25:13.374Z,8.90
2022-12-23T04:27:40.362Z,9.00
2022-12-23T04:30:09.132Z,8.90
2022-12-23T04:32:35.679Z,8.90
2022-12-23T04:35:02.291Z,8.90
2022-12-23T04:37:28.827Z,9.00
2022-12-23T04:39:55.349Z,8.90
2022-12-23T04:42:21.932Z,9.10
2022-12-23T04:44:48.460Z,8.90
2022-12-23T04:47:15.014Z,8.80
2022-12-23T04:49:41.584Z,8.70
2022-12-23T04:52:08.092Z,8.80
2022-12-23T04:54:34.606Z,8.90
2022-12-23T04:57:01.132Z,8.70
2022-12-23T04:59:27.720Z,8.90
2022-12-23T05:01:54.266Z,8.90
2022-12-23T05:04:20.965Z,9.00
2022-12-23T05:06:47.615Z,9.00
2022-12-23T05:09:14.157Z,9.30
2022-12-23T05:11:42.503Z,9.40
2022-12-23T05:14:12.686Z,9.20
2022-12-23T05:16:39.321Z,9.20
2022-12-23T05:19:06.140Z,9.10
2022-12-23T05:21:32.646Z,9.00
2022-12-23T05:23:59.174Z,9.20
2022-12-23T05:26:25.811Z,9.40
2022-12-23T05:28:52.328Z,9.50
2022-12-23T05:31:18.967Z,9.60
2022-12-23T05:33:45.616Z,9.50
2022-12-23T05:36:12.511Z,9.40
2022-12-23T05:38:39.038Z,8.80
2022-12-23T05:41:05.685Z,9.20
2022-12-23T05:43:32.231Z,9.10
2022-12-23T05:45:58.775Z,9.20
2022-12-23T05:48:25.423Z,9.30
2022-12-23T05:50:52.943Z,9.10
2022-12-23T05:53:20.377Z,9.30
2022-12-23T05:55:47.177Z,9.40
2022-12-23T05:58:13.743Z,9.40
2022-12-23T06:00:43.719Z,9.50
2022-12-23T06:03:11.712Z,9.70
2022-12-23T06:05:39.502Z,9.60
2022-12-23T06:08:06.132Z,9.60
2022-12-23T06:10:32.707Z,9.60
2022-12-23T06:12:59.240Z,9.30
2022-12-23T06:15:25.774Z,9.40
2022-12-23T06:17:52.262Z,9.40
2022-12-23T06:20:21.742Z,9.30
2022-12-23T06:22:55.247Z,9.50
2022-12-23T06:25:21.842Z,9.50
2022-12-23T06:27:48.396Z,9.50
2022-12-23T06:30:15.046Z,9.40
2022-12-23T06:32:41.602Z,9.40
2022-12-23T06:35:08.688Z,9.40
2022-12-23T06:37:35.344Z,9.50
2022-12-23T06:40:01.929Z,9.50
2022-12-23T06:42:28.593Z,9.50
2022-12-23T06:44:55.174Z,9.30
2022-12-23T06:47:21.687Z,9.50
2022-12-23T06:49:48.224Z,9.70
2022-12-23T06:52:14.740Z,9.70
2022-12-23T06:54:41.781Z,9.60
2022-12-23T06:57:08.296Z,9.60
2022-12-23T06:59:34.829Z,9.70
2022-12-23T07:02:11.267Z,9.50
2022-12-23T07:04:37.897Z,9.20
2022-12-23T07:07:04.404Z,9.50
2022-12-23T07:09:30.933Z,9.40
2022-12-23T07:11:57.446Z,9.40
2022-12-23T07:14:23.943Z,9.50
2022-12-23T07:16:50.606Z,9.40
2022-12-23T07:19:17.122Z,9.40
2022-12-23T07:21:43.681Z,9.40
2022-12-23T07:24:10.409Z,9.50
2022-12-23T07:26:36.905Z,9.60
2022-12-23T07:29:04.613Z,9.60
2022-12-23T07:31:31.204Z,9.70
2022-12-23T07:33:57.780Z,9.60
2022-12-23T07:36:24.321Z,9.50
2022-12-23T07:38:51.531Z,9.60
2022-12-23T07:41:18.232Z,9.70
2022-12-23T07:43:44.777Z,9.60
2022-12-23T07:46:11.407Z,9.70
2022-12-23T07:48:39.833Z,9.80
2022-12-23T07:51:06.485Z,9.60
2022-12-23T07:53:33.156Z,9.60
2022-12-23T07:55:59.804Z,9.70
2022-12-23T07:58:26.405Z,9.60
2022-12-23T08:01:02.864Z,9.60
2022-12-23T08:03:29.734Z,9.60
2022-12-23T08:06:04.740Z,9.60
2022-12-23T08:08:31.501Z,9.80
2022-12-23T08:11:04.720Z,9.60
2022-12-23T08:13:33.272Z,9.70
2022-12-23T08:16:00.851Z,9.30
2022-12-23T08:18:30.097Z,9.30
2022-12-23T08:21:01.651Z,9.30
2022-12-23T08:23:29.627Z,9.30
2022-12-23T08:26:04.935Z,8.90
2022-12-23T08:28:31.973Z,9.40
2022-12-23T08:31:13.039Z,9.30
2022-12-23T08:33:41.293Z,9.40
2022-12-23T08:36:10.336Z,9.40
2022-12-23T08:38:37.282Z,9.60
2022-12-23T08:41:04.036Z,9.70
2022-12-23T08:43:35.786Z,9.90
2022-12-23T08:46:03.255Z,9.90
2022-12-23T08:48:29.853Z,9.40
2022-12-23T08:50:56.421Z,9.50
2022-12-23T08:53:23.011Z,9.70
2022-12-23T08:55:49.617Z,9.70
2022-12-23T08:58:16.417Z,9.50
2022-12-23T09:00:43.075Z,9.30
2022-12-23T09:03:09.857Z,9.30
2022-12-23T09:05:40.913Z,9.10
2022-12-23T09:08:08.850Z,9.60
2022-12-23T09:10:41.109Z,9.60
2022-12-23T09:13:07.863Z,9.90
2022-12-23T09:15:39.608Z,9.60
2022-12-23T09:18:06.326Z,9.60
2022-12-23T09:20:32.856Z,9.60
2022-12-23T09:23:01.284Z,9.60
2022-12-23T09:25:27.896Z,9.70
2022-12-23T09:27:54.438Z,10.00
2022-12-23T09:30:20.954Z,10.20
2022-12-23T09:32:47.692Z,10.30
2022-12-23T09:35:14.228Z,10.40
2022-12-23T09:37:40.898Z,10.20
2022-12-23T09:40:08.289Z,10.20
2022-12-23T09:42:53.942Z,10.20
2022-12-23T09:45:40.500Z,10.00
2022-12-23T09:48:12.676Z,10.10
2022-12-23T09:50:40.017Z,10.10
2022-12-23T09:53:11.700Z,9.90
2022-12-23T09:55:57.811Z,9.50
2022-12-23T09:58:30.395Z,9.70
2022-12-23T10:01:02.972Z,9.90
2022-12-23T10:03:51.801Z,9.90
2022-12-23T10:06:26.529Z,10.00
2022-12-23T10:08:57.006Z,10.00
2022-12-23T10:11:24.075Z,10.20
2022-12-23T10:13:54.204Z,10.10
2022-12-23T10:16:24.149Z,9.90
2022-12-23T10:19:22.515Z,9.80
2022-12-23T10:22:06.198Z,9.80
2022-12-23T10:24:41.795Z,9.80
2022-12-23T10:27:35.645Z,9.90
2022-12-23T10:30:34.362Z,9.70
2022-12-23T10:33:20.370Z,9.70
2022-12-23T10:36:07.411Z,9.90
2022-12-23T10:39:20.195Z,10.10
2022-12-23T10:42:03.505Z,10.30
2022-12-23T10:44:59.389Z,10.30
2022-12-23T10:47:37.807Z,10.40
2022-12-23T10:50:26.807Z,10.40
2022-12-23T10:52:56.731Z,10.10
2022-12-23T10:55:33.546Z,10.50
2022-12-23T10:58:19.665Z,10.60
2022-12-23T11:00:54.337Z,10.70
2022-12-23T11:03:36.899Z,10.40
2022-12-23T11:06:07.512Z,10.50
2022-12-23T11:08:35.607Z,10.60
2022-12-23T11:11:03.585Z,10.80
2022-12-23T11:13:40.886Z,10.70
2022-12-23T11:16:28.853Z,10.60
2022-12-23T11:19:09.837Z,10.80
2022-12-23T11:21:54.124Z,10.70
2022-12-23T11:24:22.611Z,10.80
2022-12-23T11:27:07.229Z,10.70
2022-12-23T11:29:36.679Z,10.70
2022-12-23T11:32:16.129Z,10.50
2022-12-23T11:34:45.197Z,10.80
2022-12-23T11:37:26.086Z,10.90
2022-12-23T11:39:52.753Z,11.00
2022-12-23T11:42:26.614Z,10.80
2022-12-23T11:44:55.040Z,10.90
2022-12-23T11:47:41.054Z,10.90
2022-12-23T11:50:20.523Z,10.90
2022-12-23T11:52:58.763Z,11.00
2022-12-23T11:55:29.684Z,10.40
2022-12-23T11:57:56.588Z,10.10
2022-12-23T12:00:40.111Z,10.40
2022-12-23T12:03:07.404Z,10.40
2022-12-23T12:05:37.745Z,10.60
2022-12-23T12:08:09.544Z,10.60
2022-12-23T12:10:41.423Z,10.60
2022-12-23T12:13:33.342Z,10.70
2022-12-23T12:16:10.114Z,10.80
2022-12-23T12:18:38.445Z,10.70
2022-12-23T12:21:07.443Z,10.70
2022-12-23T12:23:48.732Z,10.60
2022-12-23T12:26:27.817Z,10.60
2022-12-23T12:29:00.806Z,10.70
2022-12-23T12:31:32.253Z,10.80
2022-12-23T12:34:17.442Z,10.50
2022-12-23T12:36:52.750Z,10.10
2022-12-23T12:39:36.094Z,10.20
2022-12-23T12:42:14.034Z,10.40
2022-12-23T12:44:55.651Z,10.40
2022-12-23T12:50:28.087Z,10.80
2022-12-23T12:52:58.205Z,10.40
2022-12-23T12:55:37.487Z,10.50
2022-12-23T12:58:04.105Z,10.50
2022-12-23T13:00:40.942Z,10.70
2022-12-23T13:03:10.643Z,10.70
2022-12-23T13:05:54.245Z,10.60
2022-12-23T13:08:59.207Z,10.60
2022-12-23T13:11:35.471Z,10.80
2022-12-23T13:14:32.645Z,10.80
2022-12-23T13:17:05.125Z,10.80
2022-12-23T13:20:12.626Z,11.00
2022-12-23T13:22:39.519Z,11.00
2022-12-23T13:25:17.807Z,10.70
2022-12-23T13:28:04.447Z,10.80
2022-12-23T13:30:47.385Z,10.30
2022-12-23T13:33:18.341Z,10.30
2022-12-23T13:36:06.168Z,10.20
2022-12-23T13:38:42.194Z,10.30
2022-12-23T13:41:31.639Z,10.50
2022-12-23T13:44:00.647Z,10.60
2022-12-23T13:46:27.192Z,10.70
2022-12-23T13:49:06.602Z,11.00
2022-12-23T13:51:42.611Z,10.70
2022-12-23T13:54:47.239Z,10.40
2022-12-23T13:57:21.186Z,10.00
2022-12-23T14:00:05.436Z,10.30
2022-12-23T14:02:41.911Z,10.40
2022-12-23T14:05:40.779Z,10.30
2022-12-23T14:08:19.879Z,10.10
2022-12-23T14:11:19.824Z,9.70
2022-12-23T14:13:59.559Z,9.20
2022-12-23T14:16:35.119Z,9.00
2022-12-23T14:19:26.499Z,9.20
2022-12-23T14:22:11.725Z,9.50
2022-12-23T14:24:49.783Z,10.00
2022-12-23T14:27:41.273Z,10.00
2022-12-23T14:30:31.925Z,10.10
2022-12-23T14:33:00.187Z,10.30
2022-12-23T14:35:46.650Z,10.20
2022-12-23T14:38:16.201Z,9.70
2022-12-23T14:40:42.652Z,9.40
2022-12-23T14:43:27.709Z,9.20
2022-12-23T14:45:56.271Z,9.40
2022-12-23T14:49:09.571Z,9.00
2022-12-23T14:51:39.638Z,8.90
2022-12-23T14:54:09.143Z,8.90
2022-12-23T14:56:38.588Z,9.00
2022-12-23T14:59:26.878Z,9.50
2022-12-23T15:02:14.453Z,9.60
2022-12-23T15:04:54.132Z,9.90
2022-12-23T15:07:38.275Z,10.00
2022-12-23T15:10:07.105Z,9.90
2022-12-23T15:12:38.849Z,10.10
2022-12-23T15:15:20.648Z,10.30
2022-12-23T15:17:47.722Z,10.30
2022-12-23T15:20:22.063Z,10.50
2022-12-23T15:22:48.915Z,10.40
2022-12-23T15:25:29.904Z,10.50
2022-12-23T15:28:01.611Z,10.50
2022-12-23T15:30:33.907Z,10.50
2022-12-23T15:33:03.602Z,10.20
2022-12-23T15:35:33.111Z,10.50
2022-12-23T15:37:59.951Z,10.50
2022-12-23T15:40:32.633Z,10.40
2022-12-23T15:43:00.128Z,10.40
2022-12-23T15:45:36.865Z,10.30
2022-12-23T15:48:05.818Z,10.40
2022-12-23T15:50:40.313Z,10.40
2022-12-23T15:53:13.181Z,10.10
2022-12-23T15:55:40.808Z,10.40
2022-12-23T15:58:08.515Z,10.20
2022-12-23T16:00:39.162Z,10.30
2022-12-23T16:03:10.369Z,10.40
2022-12-23T16:05:43.054Z,10.20
2022-12-23T16:08:15.991Z,9.80
2022-12-23T16:11:04.536Z,9.20
2022-12-23T16:13:31.709Z,8.80
2022-12-23T16:16:18.501Z,8.70
2022-12-23T16:18:47.949Z,8.70
2022-12-23T16:21:14.663Z,8.20
2022-12-23T16:23:49.768Z,8.00
2022-12-23T16:26:16.360Z,8.20
2022-12-23T16:28:45.237Z,8.30
2022-12-23T16:31:16.544Z,8.50
2022-12-23T16:33:54.861Z,8.00
2022-12-23T16:36:27.682Z,7.90
2022-12-23T16:39:00.864Z,7.90
2022-12-23T16:41:27.444Z,8.30
2022-12-23T16:43:53.949Z,8.30
2022-12-23T16:46:24.410Z,8.50
2022-12-23T16:49:04.599Z,8.50
2022-12-23T16:51:34.275Z,8.90
2022-12-23T16:54:01.865Z,9.20
2022-12-23T16:56:30.895Z,9.30
2022-12-23T16:58:57.462Z,9.40
2022-12-23T17:01:25.088Z,9.30
2022-12-23T17:03:51.923Z,9.40
2022-12-23T17:06:19.050Z,9.50
2022-12-23T17:08:45.618Z,9.60
2022-12-23T17:11:23.348Z,9.50
2022-12-23T17:13:50.035Z,9.70
2022-12-23T17:16:20.017Z,9.60
2022-12-23T17:18:50.272Z,9.50
2022-12-23T17:21:30.035Z,9.60
2022-12-23T17:24:06.520Z,9.60
2022-12-23T17:26:33.281Z,9.70
2022-12-23T17:28:59.797Z,9.80
2022-12-23T17:31:27.372Z,10.00
2022-12-23T17:33:54.464Z,10.00
2022-12-23T17:36:21.634Z,9.90
2022-12-23T17:38:48.237Z,9.80
2022-12-23T17:41:35.001Z,9.80
2022-12-23T17:44:01.584Z,9.70
2022-12-23T17:46:29.178Z,9.80
2022-12-23T17:48:58.077Z,9.80
2022-12-23T17:51:26.079Z,9.90
2022-12-23T17:53:58.341Z,10.00
2022-12-23T17:56:27.429Z,9.70
2022-12-23T17:58:54.135Z,9.40
2022-12-23T18:01:24.179Z,9.20
2022-12-23T18:03:50.994Z,9.20
2022-12-23T18:06:19.546Z,9.00
2022-12-23T18:08:46.398Z,9.30
2022-12-23T18:11:23.043Z,9.40
2022-12-23T18:13:53.189Z,9.70
2022-12-23T18:16:20.019Z,9.80
2022-12-23T18:18:47.271Z,9.70
2022-12-23T18:21:26.531Z,9.80
2022-12-23T18:23:54.450Z,9.80
2022-12-23T18:26:21.041Z,9.80
2022-12-23T18:28:47.684Z,9.80
2022-12-23T18:31:20.997Z,9.90
2022-12-23T18:33:47.750Z,9.70
2022-12-23T18:36:25.321Z,9.70
2022-12-23T18:38:52.584Z,9.40
2022-12-23T18:41:20.583Z,9.40
2022-12-23T18:43:47.319Z,9.30
2022-12-23T18:46:13.890Z,9.40
2022-12-23T18:48:40.479Z,9.50
2022-12-23T18:51:07.162Z,9.50
2022-12-23T18:53:33.865Z,9.20
2022-12-23T18:56:00.383Z,8.70
2022-12-23T18:58:26.900Z,8.50
2022-12-23T19:00:54.134Z,8.80
2022-12-23T19:03:24.759Z,9.10
2022-12-23T19:05:52.498Z,9.40
2022-12-23T19:08:25.884Z,9.50
2022-12-23T19:10:53.911Z,9.40
2022-12-23T19:13:20.465Z,9.50
2022-12-23T19:15:47.055Z,9.10
2022-12-23T19:18:18.638Z,9.40
2022-12-23T19:20:46.421Z,9.40
2022-12-23T19:23:14.513Z,9.20
2022-12-23T19:25:52.558Z,9.10
2022-12-23T19:28:21.578Z,9.10
2022-12-23T19:30:48.728Z,8.80
2022-12-23T19:33:18.465Z,8.90
2022-12-23T19:35:48.133Z,9.10
2022-12-23T19:38:15.072Z,9.40
2022-12-23T19:40:41.784Z,9.40
2022-12-23T19:43:13.215Z,9.50
2022-12-23T19:45:41.125Z,9.50
2022-12-23T19:48:08.904Z,9.50
2022-12-23T19:50:41.027Z,9.40
2022-12-23T19:53:10.951Z,9.20
2022-12-23T19:55:40.064Z,9.20
2022-12-23T19:58:06.651Z,9.20
2022-12-23T20:00:37.027Z,9.30
2022-12-23T20:03:04.676Z,9.50
2022-12-23T20:05:31.310Z,9.50
2022-12-23T20:08:03.849Z,9.50
2022-12-23T20:10:30.857Z,9.60
2022-12-23T20:13:00.619Z,9.50
2022-12-23T20:15:29.836Z,9.50
2022-12-23T20:18:01.231Z,9.30
2022-12-23T20:20:30.976Z,9.00
2022-12-23T20:22:57.634Z,8.80
2022-12-23T20:25:24.366Z,8.50
2022-12-23T20:27:51.265Z,8.60
2022-12-23T20:30:18.064Z,8.40
2022-12-23T20:32:44.993Z,8.50
2022-12-23T20:35:12.158Z,8.50
2022-12-23T20:37:42.375Z,8.70
2022-12-23T20:40:14.615Z,8.80
2022-12-23T20:42:41.667Z,8.60
2022-12-23T20:45:09.458Z,8.60
2022-12-23T20:47:36.170Z,8.50
2022-12-23T20:50:06.443Z,8.40
2022-12-23T20:52:33.611Z,8.50
2022-12-23T20:55:01.709Z,8.40
2022-12-23T20:57:32.084Z,8.30
2022-12-23T21:00:01.666Z,8.20
2022-12-23T21:02:28.365Z,8.20
2022-12-23T21:04:55.263Z,8.30
2022-12-23T21:07:22.096Z,8.40
2022-12-23T21:09:48.907Z,8.40
2022-12-23T21:12:15.618Z,8.80
2022-12-23T21:14:42.355Z,8.70
2022-12-23T21:17:10.115Z,8.70
2022-12-23T21:19:37.111Z,9.00
2022-12-23T21:22:03.979Z,8.80
2022-12-23T21:24:30.792Z,9.00
2022-12-23T21:26:57.569Z,9.10
2022-12-23T21:29:24.395Z,9.00
2022-12-23T21:31:51.349Z,9.10
2022-12-23T21:34:18.127Z,9.10
2022-12-23T21:36:44.784Z,9.10
2022-12-23T21:39:14.597Z,8.80
2022-12-23T21:41:41.879Z,8.90
2022-12-23T21:44:09.751Z,8.90
2022-12-23T21:46:36.547Z,8.70
2022-12-23T21:49:03.408Z,8.70
2022-12-23T21:51:39.416Z,8.50
2022-12-23T21:54:07.212Z,8.50
2022-12-23T21:56:33.938Z,8.80
2022-12-23T21:59:02.741Z,8.60
2022-12-23T22:01:29.985Z,8.50
2022-12-23T22:03:57.031Z,8.40
2022-12-23T22:06:29.327Z,8.50
2022-12-23T22:08:56.396Z,8.60
2022-12-23T22:11:25.869Z,8.70
2022-12-23T22:13:53.141Z,8.40
2022-12-23T22:16:22.154Z,8.40
2022-12-23T22:18:49.443Z,8.40
2022-12-23T22:21:21.463Z,8.00
2022-12-23T22:23:49.406Z,8.20
2022-12-23T22:26:24.247Z,8.20
2022-12-23T22:28:52.316Z,8.30
2022-12-23T22:31:34.280Z,8.20
2022-12-23T22:34:01.089Z,8.10
2022-12-23T22:36:28.967Z,8.30
2022-12-23T22:38:57.785Z,8.30
2022-12-23T22:41:27.853Z,8.30
2022-12-23T22:43:55.443Z,8.40
2022-12-23T22:46:24.434Z,8.40
2022-12-23T22:48:51.966Z,8.20
2022-12-23T22:51:22.026Z,8.20
2022-12-23T22:53:48.809Z,8.20
2022-12-23T22:56:16.772Z,8.30
2022-12-23T22:58:43.399Z,8.40
2022-12-23T23:01:23.113Z,8.40
2022-12-23T23:03:54.139Z,8.20
2022-12-23T23:06:20.731Z,8.20
2022-12-23T23:08:47.267Z,8.10
2022-12-23T23:11:13.791Z,8.00
2022-12-23T23:13:40.285Z,7.90
2022-12-23T23:16:07.140Z,7.90
2022-12-23T23:18:34.168Z,7.60
2022-12-23T23:21:01.417Z,7.40
2022-12-23T23:23:28.021Z,7.20
2022-12-23T23:25:54.650Z,7.50
2022-12-23T23:28:21.217Z,7.60
2022-12-23T23:30:47.964Z,7.80
2022-12-23T23:33:14.535Z,7.50
2022-12-23T23:35:41.053Z,7.50
2022-12-23T23:38:08.489Z,7.60
2022-12-23T23:40:35.223Z,7.40
2022-12-23T23:43:01.917Z,7.20
2022-12-23T23:45:28.684Z,7.00
2022-12-23T23:47:55.630Z,7.10
2022-12-23T23:50:22.531Z,7.00
2022-12-23T23:52:49.152Z,7.20
2022-12-23T23:55:15.816Z,7.50
2022-12-23T23:57:44.672Z,7.40
